Time;durP1;ratioP1;P1;durP2;ratioP2;P2;SDS_P1;SDS_P2;PMS_P1;PMS_P2;Temp;Humidity;BMP_temperature;BMP_pressure;BME280_temperature;BME280_humidity;BME280_pressure;Samples;Min_cycle;Max_cycle;Signal;HPM_P1;HPM_P2
2023/07/24 00:01:57;;;;;;;12.20;5.47;;;;;;;;;;5105430;28;20128;-58
2023/07/24 00:04:25;;;;;;;15.60;5.95;;;;;;;;;;5099719;28;20072;-60
2023/07/24 00:06:55;;;;;;;11.20;4.05;;;;;;;;;;5107992;28;20099;-59
2023/07/24 00:09:23;;;;;;;13.15;5.18;;;;;;;;;;5105055;27;20488;-58
2023/07/24 00:11:51;;;;;;;12.48;5.35;;;;;;;;;;5104373;28;20143;-60
2023/07/24 00:14:20;;;;;;;11.02;4.78;;;;;;;;;;5103800;28;20044;-61
2023/07/24 00:16:48;;;;;;;13.98;5.32;;;;;;;;;;5105532;28;20457;-64
2023/07/24 00:19:18;;;;;;;12.45;5.00;;;;;;;;;;5104382;28;20048;-61
2023/07/24 00:21:46;;;;;;;12.90;5.38;;;;;;;;;;5104352;28;20069;-59
2023/07/24 00:24:15;;;;;;;12.05;5.68;;;;;;;;;;5102545;28;20109;-61
2023/07/24 00:26:43;;;;;;;13.75;5.15;;;;;;;;;;5102635;28;20047;-60
2023/07/24 00:29:12;;;;;;;9.88;4.20;;;;;;;;;;5103771;28;20133;-60
2023/07/24 00:31:40;;;;;;;12.35;4.63;;;;;;;;;;5109335;28;20048;-61
2023/07/24 00:34:08;;;;;;;11.02;5.07;;;;;;;;;;5103027;27;20479;-61
2023/07/24 00:36:39;;;;;;;16.42;5.10;;;;;;;;;;5100512;28;20039;-61
2023/07/24 00:39:07;;;;;;;11.80;4.93;;;;;;;;;;5102096;27;20047;-60
2023/07/24 00:41:36;;;;;;;12.55;4.70;;;;;;;;;;5096526;28;20048;-59
2023/07/24 00:44:04;;;;;;;11.23;4.68;;;;;;;;;;5101760;27;20541;-59
2023/07/24 00:46:33;;;;;;;11.27;4.82;;;;;;;;;;5105266;28;20051;-60
2023/07/24 00:49:02;;;;;;;10.68;4.85;;;;;;;;;;5096661;27;20088;-60
2023/07/24 00:51:30;;;;;;;9.82;4.38;;;;;;;;;;5100761;28;20040;-61
2023/07/24 00:54:02;;;;;;;9.82;4.75;;;;;;;;;;5102289;28;20051;-59
2023/07/24 00:56:31;;;;;;;13.23;5.22;;;;;;;;;;5102586;28;20667;-59
2023/07/24 00:59:00;;;;;;;10.77;4.47;;;;;;;;;;5100008;27;20035;-60
2023/07/24 01:01:30;;;;;;;11.07;5.15;;;;;;;;;;5101088;27;20551;-60
2023/07/24 01:03:59;;;;;;;8.23;4.18;;;;;;;;;;5121363;22;20044;-61
2023/07/24 01:06:27;;;;;;;11.48;4.88;;;;;;;;;;5089054;28;20063;-59
2023/07/24 01:08:56;;;;;;;9.77;4.57;;;;;;;;;;5088470;28;20477;-58
2023/07/24 01:11:29;;;;;;;10.73;4.70;;;;;;;;;;5078390;28;20137;-59
2023/07/24 01:13:59;;;;;;;10.75;4.72;;;;;;;;;;5084572;28;20040;-59
2023/07/24 01:16:30;;;;;;;10.85;5.57;;;;;;;;;;5084853;28;20543;-61
2023/07/24 01:19:02;;;;;;;11.65;4.28;;;;;;;;;;5086026;28;20087;-64
2023/07/24 01:21:32;;;;;;;12.20;4.13;;;;;;;;;;5078891;28;20125;-58
2023/07/24 01:24:04;;;;;;;9.90;4.53;;;;;;;;;;5080311;28;20751;-62
2023/07/24 01:26:34;;;;;;;10.07;4.60;;;;;;;;;;5083086;28;20101;-59
2023/07/24 01:29:03;;;;;;;13.93;4.50;;;;;;;;;;5081814;28;20102;-58
2023/07/24 01:31:31;;;;;;;10.05;4.55;;;;;;;;;;5075396;28;20079;-65
2023/07/24 01:33:59;;;;;;;12.23;4.90;;;;;;;;;;5079824;28;20145;-62
2023/07/24 01:36:28;;;;;;;9.48;4.53;;;;;;;;;;5081303;28;20083;-59
2023/07/24 01:38:57;;;;;;;12.32;5.03;;;;;;;;;;5081783;28;20047;-61
2023/07/24 01:41:26;;;;;;;10.93;5.10;;;;;;;;;;5077463;28;20810;-58
2023/07/24 01:43:56;;;;;;;12.32;5.03;;;;;;;;;;5076723;28;20515;-58
2023/07/24 01:46:24;;;;;;;11.27;4.32;;;;;;;;;;5095697;28;20501;-59
2023/07/24 01:48:53;;;;;;;10.50;4.90;;;;;;;;;;5102263;28;20047;-61
2023/07/24 01:51:21;;;;;;;9.73;4.30;;;;;;;;;;5106654;28;20153;-60
2023/07/24 01:53:49;;;;;;;13.38;4.75;;;;;;;;;;5105044;28;20140;-58
2023/07/24 01:56:18;;;;;;;9.43;4.22;;;;;;;;;;5087614;28;20425;-58
2023/07/24 01:58:46;;;;;;;11.70;5.05;;;;;;;;;;5083539;28;20044;-59
2023/07/24 02:01:16;;;;;;;8.50;3.85;;;;;;;;;;5084051;28;20045;-60
2023/07/24 02:03:44;;;;;;;13.30;3.97;;;;;;;;;;5077459;28;20049;-59
2023/07/24 02:06:16;;;;;;;11.00;4.53;;;;;;;;;;5076404;28;20044;-58
2023/07/24 02:08:48;;;;;;;11.77;4.50;;;;;;;;;;5083370;28;20068;-59
2023/07/24 02:11:17;;;;;;;9.98;4.15;;;;;;;;;;5085602;28;20052;-58
2023/07/24 02:13:46;;;;;;;9.68;4.93;;;;;;;;;;5078841;28;20459;-60
2023/07/24 02:16:16;;;;;;;9.25;4.10;;;;;;;;;;5062654;28;20110;-58
2023/07/24 02:18:44;;;;;;;11.02;4.75;;;;;;;;;;5060440;28;20102;-58
2023/07/24 02:21:13;;;;;;;8.50;4.32;;;;;;;;;;5064940;28;20497;-58
2023/07/24 02:23:41;;;;;;;7.85;3.85;;;;;;;;;;5063765;28;20098;-58
2023/07/24 02:26:09;;;;;;;11.60;4.50;;;;;;;;;;5068899;28;20129;-58
2023/07/24 02:28:38;;;;;;;8.60;4.07;;;;;;;;;;5067630;28;20117;-59
2023/07/24 02:31:06;;;;;;;9.80;4.15;;;;;;;;;;5071122;28;20110;-58
2023/07/24 02:33:36;;;;;;;9.40;4.25;;;;;;;;;;5070209;28;20062;-60
2023/07/24 02:36:05;;;;;;;9.35;4.15;;;;;;;;;;5071834;28;20113;-59
2023/07/24 02:38:33;;;;;;;7.95;3.75;;;;;;;;;;5070711;28;20531;-61
2023/07/24 02:41:02;;;;;;;9.27;4.38;;;;;;;;;;5071077;28;20075;-62
2023/07/24 02:43:30;;;;;;;9.45;4.13;;;;;;;;;;5064173;28;20067;-58
2023/07/24 02:46:02;;;;;;;8.43;3.88;;;;;;;;;;5084185;28;20121;-59
2023/07/24 02:48:31;;;;;;;9.68;4.88;;;;;;;;;;5081238;28;20049;-63
2023/07/24 02:51:00;;;;;;;9.52;4.28;;;;;;;;;;5087861;28;20044;-64
2023/07/24 02:53:29;;;;;;;10.95;4.97;;;;;;;;;;5089735;28;20048;-58
2023/07/24 02:55:57;;;;;;;10.23;4.43;;;;;;;;;;5088204;28;20044;-59
2023/07/24 02:58:25;;;;;;;10.05;3.78;;;;;;;;;;5087084;28;20048;-58
2023/07/24 03:00:54;;;;;;;11.43;4.72;;;;;;;;;;5083549;28;20075;-63
2023/07/24 03:03:22;;;;;;;9.07;3.83;;;;;;;;;;5094939;28;20128;-63
2023/07/24 03:05:51;;;;;;;10.25;4.28;;;;;;;;;;5106678;28;20046;-60
2023/07/24 03:08:20;;;;;;;11.27;4.32;;;;;;;;;;5104279;28;20050;-58
2023/07/24 03:10:49;;;;;;;9.13;4.55;;;;;;;;;;5108816;28;20067;-59
2023/07/24 03:13:17;;;;;;;13.32;4.30;;;;;;;;;;5106310;28;20481;-58
2023/07/24 03:15:53;;;;;;;8.05;4.05;;;;;;;;;;5102930;28;20047;-60
2023/07/24 03:18:21;;;;;;;10.07;4.80;;;;;;;;;;5099829;28;20557;-59
2023/07/24 03:20:49;;;;;;;14.57;5.22;;;;;;;;;;5092565;28;20093;-59
2023/07/24 03:23:18;;;;;;;11.85;5.32;;;;;;;;;;5106366;28;20089;-58
2023/07/24 03:25:48;;;;;;;12.63;5.18;;;;;;;;;;5102103;28;20047;-59
2023/07/24 03:28:16;;;;;;;11.23;5.15;;;;;;;;;;5094771;28;20079;-60
2023/07/24 03:30:44;;;;;;;12.57;4.88;;;;;;;;;;5086447;28;20072;-57
2023/07/24 03:33:13;;;;;;;16.95;5.65;;;;;;;;;;5097980;28;20054;-59
2023/07/24 03:35:41;;;;;;;14.73;5.00;;;;;;;;;;5099356;28;20571;-59
2023/07/24 03:38:10;;;;;;;12.57;5.60;;;;;;;;;;5101382;28;20043;-61
2023/07/24 03:40:38;;;;;;;12.57;5.20;;;;;;;;;;5101623;27;20044;-59
2023/07/24 03:43:08;;;;;;;13.63;5.50;;;;;;;;;;5104320;27;20039;-59
2023/07/24 03:45:37;;;;;;;12.25;5.10;;;;;;;;;;5101113;28;20075;-59
2023/07/24 03:48:05;;;;;;;15.38;4.88;;;;;;;;;;5097382;28;20055;-59
2023/07/24 03:50:34;;;;;;;11.02;5.28;;;;;;;;;;5098237;28;21023;-60
2023/07/24 03:53:02;;;;;;;12.55;5.20;;;;;;;;;;5105224;28;20044;-59
2023/07/24 03:55:31;;;;;;;9.75;4.15;;;;;;;;;;5106445;28;20112;-60
2023/07/24 03:57:59;;;;;;;13.35;5.00;;;;;;;;;;5094480;28;20393;-58
2023/07/24 04:00:29;;;;;;;15.13;5.20;;;;;;;;;;5101971;28;20543;-58
2023/07/24 04:02:57;;;;;;;14.35;4.65;;;;;;;;;;5109339;28;20044;-60
2023/07/24 04:05:27;;;;;;;12.73;5.32;;;;;;;;;;5104207;28;20062;-59
2023/07/24 04:07:56;;;;;;;13.65;5.80;;;;;;;;;;5098626;28;20408;-59
2023/07/24 04:10:24;;;;;;;14.18;4.70;;;;;;;;;;5102851;27;20051;-59
2023/07/24 04:12:53;;;;;;;12.32;4.68;;;;;;;;;;5108065;27;20055;-60
2023/07/24 04:15:21;;;;;;;12.68;5.00;;;;;;;;;;5104096;28;20105;-59
2023/07/24 04:17:51;;;;;;;15.45;5.32;;;;;;;;;;5103259;28;20438;-59
2023/07/24 04:20:19;;;;;;;12.93;5.40;;;;;;;;;;5108393;28;20118;-60
2023/07/24 04:22:47;;;;;;;11.63;5.75;;;;;;;;;;5104655;27;20539;-60
2023/07/24 04:25:16;;;;;;;13.23;5.43;;;;;;;;;;5101168;28;20044;-59
2023/07/24 04:27:44;;;;;;;14.90;5.57;;;;;;;;;;5101303;28;20093;-59
2023/07/24 04:30:13;;;;;;;13.10;5.53;;;;;;;;;;5094505;28;20425;-58
2023/07/24 04:32:41;;;;;;;15.43;5.97;;;;;;;;;;5098702;28;20109;-66
2023/07/24 04:35:11;;;;;;;11.65;5.28;;;;;;;;;;5102068;28;20101;-60
2023/07/24 04:37:40;;;;;;;13.25;5.60;;;;;;;;;;5105536;28;20078;-59
2023/07/24 04:40:08;;;;;;;13.30;5.18;;;;;;;;;;5097497;28;20105;-62
2023/07/24 04:42:37;;;;;;;12.60;5.45;;;;;;;;;;5096262;28;20049;-63
2023/07/24 04:45:05;;;;;;;12.50;4.70;;;;;;;;;;5099381;28;20052;-60
2023/07/24 04:47:34;;;;;;;14.90;6.97;;;;;;;;;;5099039;28;20888;-60
2023/07/24 04:50:02;;;;;;;13.93;5.45;;;;;;;;;;5099475;28;20055;-59
2023/07/24 04:52:32;;;;;;;13.85;5.80;;;;;;;;;;5100239;28;20043;-61
2023/07/24 04:55:00;;;;;;;14.48;5.75;;;;;;;;;;5099424;28;20476;-60
2023/07/24 04:57:29;;;;;;;12.30;4.90;;;;;;;;;;5096584;28;20083;-60
2023/07/24 04:59:57;;;;;;;13.25;5.68;;;;;;;;;;5093736;28;20049;-60
2023/07/24 05:02:25;;;;;;;14.88;5.68;;;;;;;;;;5093271;28;20116;-59
2023/07/24 05:04:54;;;;;;;12.75;5.05;;;;;;;;;;5074380;28;20646;-60
2023/07/24 05:07:22;;;;;;;15.30;5.15;;;;;;;;;;5076406;28;20126;-59
2023/07/24 05:09:52;;;;;;;13.18;5.15;;;;;;;;;;5074594;28;20504;-60
2023/07/24 05:12:20;;;;;;;12.85;5.30;;;;;;;;;;5077705;28;20351;-60
2023/07/24 05:14:49;;;;;;;10.43;4.80;;;;;;;;;;5079676;28;20110;-59
2023/07/24 05:17:17;;;;;;;12.65;5.05;;;;;;;;;;5087886;28;20047;-60
2023/07/24 05:19:46;;;;;;;13.10;4.97;;;;;;;;;;5077707;28;20060;-59
2023/07/24 05:22:14;;;;;;;12.65;5.47;;;;;;;;;;5073159;28;20671;-63
2023/07/24 05:24:42;;;;;;;13.60;5.35;;;;;;;;;;5081301;28;20047;-59
2023/07/24 05:27:12;;;;;;;10.32;4.60;;;;;;;;;;5091814;28;20049;-59
2023/07/24 05:29:41;;;;;;;12.35;5.15;;;;;;;;;;5090867;28;20131;-60
2023/07/24 05:32:09;;;;;;;14.88;5.63;;;;;;;;;;5082610;28;20464;-60
2023/07/24 05:34:37;;;;;;;15.57;5.03;;;;;;;;;;5085033;28;20048;-61
2023/07/24 05:37:07;;;;;;;13.02;5.43;;;;;;;;;;5072003;28;20072;-59
2023/07/24 05:39:35;;;;;;;14.35;5.85;;;;;;;;;;5068965;28;20048;-59
2023/07/24 05:42:03;;;;;;;11.27;5.55;;;;;;;;;;5080935;28;20136;-60
2023/07/24 05:44:35;;;;;;;12.20;5.13;;;;;;;;;;5081033;28;20485;-60
2023/07/24 05:47:04;;;;;;;13.10;5.65;;;;;;;;;;5078093;28;20044;-61
2023/07/24 05:49:32;;;;;;;14.68;5.07;;;;;;;;;;5074741;28;20056;-62
2023/07/24 05:52:00;;;;;;;15.20;5.50;;;;;;;;;;5079075;28;20075;-62
2023/07/24 05:54:29;;;;;;;9.32;5.15;;;;;;;;;;5076141;28;20484;-60
2023/07/24 05:56:57;;;;;;;11.65;5.13;;;;;;;;;;5077534;28;20048;-60
2023/07/24 05:59:26;;;;;;;13.57;5.50;;;;;;;;;;5080862;28;20133;-60
2023/07/24 06:01:55;;;;;;;12.40;5.30;;;;;;;;;;5081209;28;20086;-61
2023/07/24 06:04:24;;;;;;;15.00;5.80;;;;;;;;;;5093176;28;20056;-62
2023/07/24 06:06:53;;;;;;;13.30;5.03;;;;;;;;;;5104421;28;20126;-60
2023/07/24 06:09:21;;;;;;;14.45;5.65;;;;;;;;;;5102641;28;20051;-62
2023/07/24 06:11:49;;;;;;;12.18;5.43;;;;;;;;;;5104506;28;20052;-62
2023/07/24 06:14:18;;;;;;;15.10;5.18;;;;;;;;;;5102851;28;20131;-60
2023/07/24 06:16:46;;;;;;;15.50;5.45;;;;;;;;;;5105375;28;20144;-60
2023/07/24 06:19:16;;;;;;;11.35;5.40;;;;;;;;;;5106691;28;20065;-61
2023/07/24 06:21:45;;;;;;;13.98;5.55;;;;;;;;;;5105058;28;20541;-62
2023/07/24 06:24:13;;;;;;;15.63;6.38;;;;;;;;;;5098024;28;20048;-62
2023/07/24 06:26:41;;;;;;;11.35;5.13;;;;;;;;;;5103721;28;20058;-60
2023/07/24 06:29:10;;;;;;;12.90;4.88;;;;;;;;;;5101239;28;20043;-66
2023/07/24 06:31:38;;;;;;;14.48;5.18;;;;;;;;;;5105259;28;20055;-60
2023/07/24 06:34:07;;;;;;;11.35;5.30;;;;;;;;;;5101893;28;20049;-62
2023/07/24 06:36:36;;;;;;;12.02;5.15;;;;;;;;;;5102385;28;20128;-65
2023/07/24 06:39:05;;;;;;;12.05;5.20;;;;;;;;;;5103942;28;20043;-61
2023/07/24 06:41:33;;;;;;;13.23;5.57;;;;;;;;;;5105298;28;20193;-60
2023/07/24 06:44:01;;;;;;;13.48;5.47;;;;;;;;;;5102454;28;20051;-65
2023/07/24 06:46:30;;;;;;;13.32;5.47;;;;;;;;;;5104918;28;20044;-65
2023/07/24 06:48:59;;;;;;;11.98;5.43;;;;;;;;;;5101582;28;20507;-61
2023/07/24 06:51:27;;;;;;;11.77;5.03;;;;;;;;;;5103928;28;20109;-61
2023/07/24 06:53:57;;;;;;;14.30;5.05;;;;;;;;;;5102002;28;20097;-61
2023/07/24 06:56:25;;;;;;;11.73;5.05;;;;;;;;;;5103189;28;20103;-64
2023/07/24 06:58:54;;;;;;;11.85;5.88;;;;;;;;;;5098647;28;20047;-64
2023/07/24 07:01:22;;;;;;;12.52;5.18;;;;;;;;;;5102560;28;20047;-60
2023/07/24 07:03:50;;;;;;;11.95;4.90;;;;;;;;;;5096039;28;20062;-64
2023/07/24 07:06:19;;;;;;;13.05;5.20;;;;;;;;;;5097330;28;20044;-64
2023/07/24 07:08:50;;;;;;;13.82;5.68;;;;;;;;;;5094477;28;20052;-61
2023/07/24 07:11:20;;;;;;;13.38;5.82;;;;;;;;;;5098147;28;20043;-60
2023/07/24 07:13:48;;;;;;;12.57;5.32;;;;;;;;;;5101756;28;20092;-63
2023/07/24 07:16:18;;;;;;;12.45;5.80;;;;;;;;;;5101570;28;20039;-61
2023/07/24 07:18:47;;;;;;;13.27;5.93;;;;;;;;;;5102076;28;20068;-60
2023/07/24 07:21:15;;;;;;;11.43;5.20;;;;;;;;;;5102756;28;20056;-63
2023/07/24 07:23:44;;;;;;;12.18;5.07;;;;;;;;;;5098222;28;20119;-61
2023/07/24 07:26:14;;;;;;;10.75;4.95;;;;;;;;;;5107191;28;20039;-60
2023/07/24 07:28:44;;;;;;;10.73;5.22;;;;;;;;;;5103958;28;20160;-60
2023/07/24 07:31:13;;;;;;;13.43;5.25;;;;;;;;;;5106828;28;20040;-60
2023/07/24 07:33:41;;;;;;;12.43;5.07;;;;;;;;;;5106490;28;20500;-60
2023/07/24 07:36:09;;;;;;;11.50;4.85;;;;;;;;;;5102067;28;20101;-62
2023/07/24 07:38:39;;;;;;;10.13;4.95;;;;;;;;;;5103971;27;20108;-61
2023/07/24 07:41:08;;;;;;;11.75;5.45;;;;;;;;;;5103099;28;20159;-60
2023/07/24 07:43:37;;;;;;;10.75;4.45;;;;;;;;;;5102979;28;20458;-60
2023/07/24 07:46:07;;;;;;;11.85;5.57;;;;;;;;;;5103264;28;20050;-62
2023/07/24 07:48:35;;;;;;;10.63;4.60;;;;;;;;;;5104577;28;20055;-61
2023/07/24 07:51:04;;;;;;;13.10;5.38;;;;;;;;;;5098960;28;20116;-61
2023/07/24 07:53:32;;;;;;;12.25;5.03;;;;;;;;;;5104027;28;20442;-61
2023/07/24 07:56:01;;;;;;;12.85;5.90;;;;;;;;;;5103991;28;20055;-61
2023/07/24 07:58:29;;;;;;;9.70;5.15;;;;;;;;;;5102537;28;20549;-61
2023/07/24 08:00:58;;;;;;;12.52;5.55;;;;;;;;;;5101742;28;20507;-61
2023/07/24 08:03:28;;;;;;;11.70;5.57;;;;;;;;;;5099343;27;20418;-61
2023/07/24 08:05:58;;;;;;;12.55;5.13;;;;;;;;;;5099287;28;20051;-62
2023/07/24 08:08:27;;;;;;;11.35;5.45;;;;;;;;;;5094883;28;20058;-65
2023/07/24 08:10:55;;;;;;;12.60;5.63;;;;;;;;;;5101523;28;20047;-61
2023/07/24 08:13:23;;;;;;;11.63;5.25;;;;;;;;;;5102401;28;20577;-63
2023/07/24 08:15:52;;;;;;;11.98;5.32;;;;;;;;;;5101241;28;20051;-61
2023/07/24 08:18:20;;;;;;;11.35;4.93;;;;;;;;;;5100221;28;20036;-61
2023/07/24 08:20:50;;;;;;;10.55;4.78;;;;;;;;;;5102201;28;20134;-63
2023/07/24 08:23:18;;;;;;;12.68;5.50;;;;;;;;;;5102183;28;20559;-63
2023/07/24 08:25:53;;;;;;;10.63;4.90;;;;;;;;;;5098145;28;20064;-61
2023/07/24 08:28:21;;;;;;;11.32;4.82;;;;;;;;;;5103905;28;20082;-61
2023/07/24 08:30:57;;;;;;;9.52;4.70;;;;;;;;;;5103221;28;20052;-62
2023/07/24 08:33:26;;;;;;;9.48;4.75;;;;;;;;;;5103157;28;20047;-61
2023/07/24 08:36:02;;;;;;;9.95;4.28;;;;;;;;;;5101916;28;20516;-62
2023/07/24 08:38:31;;;;;;;9.45;3.75;;;;;;;;;;5104266;28;20492;-60
2023/07/24 08:41:03;;;;;;;10.55;4.45;;;;;;;;;;5103495;28;20040;-62
2023/07/24 08:43:32;;;;;;;10.18;4.35;;;;;;;;;;5100061;28;20040;-62
2023/07/24 08:46:01;;;;;;;6.88;3.55;;;;;;;;;;5096736;28;20052;-61
2023/07/24 08:48:33;;;;;;;11.52;3.92;;;;;;;;;;5095343;28;21022;-61
2023/07/24 08:51:03;;;;;;;8.23;3.75;;;;;;;;;;5097602;28;20055;-61
2023/07/24 08:53:32;;;;;;;10.65;4.03;;;;;;;;;;5097932;28;20047;-66
2023/07/24 08:56:01;;;;;;;7.63;3.58;;;;;;;;;;5097688;28;20134;-62
2023/07/24 08:58:29;;;;;;;10.05;3.88;;;;;;;;;;5103149;28;20488;-61
2023/07/24 09:00:58;;;;;;;7.40;3.75;;;;;;;;;;5098955;28;20048;-61
2023/07/24 09:03:27;;;;;;;10.13;4.53;;;;;;;;;;5103247;28;20067;-64
2023/07/24 09:05:56;;;;;;;9.07;3.97;;;;;;;;;;5105002;28;20488;-64
2023/07/24 09:08:32;;;;;;;10.50;4.05;;;;;;;;;;5106195;28;20097;-62
2023/07/24 09:11:00;;;;;;;9.63;4.22;;;;;;;;;;5104198;28;20051;-61
2023/07/24 09:13:29;;;;;;;8.23;3.70;;;;;;;;;;5104327;28;20507;-61
2023/07/24 09:15:58;;;;;;;6.63;3.45;;;;;;;;;;5101202;28;20483;-61
2023/07/24 09:18:27;;;;;;;8.55;4.15;;;;;;;;;;5105954;28;20047;-64
2023/07/24 09:20:55;;;;;;;8.10;3.70;;;;;;;;;;5103012;28;20050;-61
2023/07/24 09:23:28;;;;;;;8.35;3.70;;;;;;;;;;5106163;28;20507;-62
2023/07/24 09:25:58;;;;;;;12.18;4.18;;;;;;;;;;5103802;28;20132;-62
2023/07/24 09:28:27;;;;;;;15.25;4.60;;;;;;;;;;5104135;28;20047;-62
2023/07/24 09:30:56;;;;;;;11.10;4.80;;;;;;;;;;5097684;28;20412;-62
2023/07/24 09:33:24;;;;;;;9.05;3.85;;;;;;;;;;5105757;28;20126;-63
2023/07/24 09:35:59;;;;;;;9.57;4.22;;;;;;;;;;5105675;28;20047;-61
2023/07/24 09:38:28;;;;;;;74.53;6.47;;;;;;;;;;5104999;28;20377;-60
2023/07/24 09:40:57;;;;;;;30.70;5.13;;;;;;;;;;5102963;28;20083;-62
2023/07/24 09:43:28;;;;;;;22.20;5.25;;;;;;;;;;5106150;28;20048;-60
2023/07/24 09:46:08;;;;;;;15.90;5.07;;;;;;;;;;5105693;28;20400;-62
2023/07/24 09:48:38;;;;;;;10.93;5.28;;;;;;;;;;5103596;28;20040;-61
2023/07/24 09:51:13;;;;;;;10.75;4.60;;;;;;;;;;5103194;28;20051;-62
2023/07/24 09:53:45;;;;;;;12.95;5.07;;;;;;;;;;5103081;28;20132;-61
2023/07/24 09:56:14;;;;;;;10.98;5.22;;;;;;;;;;5096541;28;20044;-60
2023/07/24 09:58:45;;;;;;;12.00;5.43;;;;;;;;;;5101241;28;20499;-62
2023/07/24 10:01:13;;;;;;;15.05;5.03;;;;;;;;;;5104515;28;20876;-59
2023/07/24 10:03:42;;;;;;;9.45;4.75;;;;;;;;;;5097386;28;20056;-62
2023/07/24 10:06:11;;;;;;;10.23;5.25;;;;;;;;;;5099746;28;20132;-61
2023/07/24 10:08:40;;;;;;;10.75;4.97;;;;;;;;;;5098090;28;20047;-60
2023/07/24 10:11:09;;;;;;;10.68;4.97;;;;;;;;;;5096064;28;20071;-61
2023/07/24 10:13:38;;;;;;;12.02;4.80;;;;;;;;;;5101257;28;20075;-62
2023/07/24 10:16:08;;;;;;;9.20;4.90;;;;;;;;;;5092030;28;20545;-62
2023/07/24 10:18:42;;;;;;;11.38;5.10;;;;;;;;;;5094266;28;20048;-60
2023/07/24 10:21:11;;;;;;;9.30;4.40;;;;;;;;;;5093458;28;20237;-67
2023/07/24 10:23:43;;;;;;;11.50;5.38;;;;;;;;;;5091643;28;20044;-62
2023/07/24 10:26:11;;;;;;;11.63;4.88;;;;;;;;;;5094790;28;20067;-61
2023/07/24 10:28:41;;;;;;;10.82;4.40;;;;;;;;;;5095178;28;20044;-62
2023/07/24 10:31:21;;;;;;;18.45;5.65;;;;;;;;;;5094789;28;20054;-62
2023/07/24 10:33:50;;;;;;;11.85;4.95;;;;;;;;;;5092717;28;20389;-66
2023/07/24 10:36:19;;;;;;;9.80;4.43;;;;;;;;;;5102106;28;20055;-62
2023/07/24 10:38:48;;;;;;;10.75;4.82;;;;;;;;;;5095534;28;20134;-62
2023/07/24 10:41:17;;;;;;;12.15;5.13;;;;;;;;;;5096602;28;20051;-62
2023/07/24 10:43:46;;;;;;;8.65;4.10;;;;;;;;;;5095381;28;20105;-62
2023/07/24 10:46:18;;;;;;;9.07;4.18;;;;;;;;;;5096272;28;20094;-64
2023/07/24 10:48:48;;;;;;;9.23;3.92;;;;;;;;;;5096755;28;20056;-64
2023/07/24 10:51:16;;;;;;;8.50;3.67;;;;;;;;;;5093490;28;20060;-64
2023/07/24 10:53:46;;;;;;;7.32;3.58;;;;;;;;;;5096928;28;20052;-61
2023/07/24 10:56:15;;;;;;;11.10;4.10;;;;;;;;;;5101817;28;20051;-61
2023/07/24 10:58:43;;;;;;;10.90;3.80;;;;;;;;;;5100896;27;20051;-62
2023/07/24 11:01:13;;;;;;;9.13;3.78;;;;;;;;;;5102151;28;20104;-66
2023/07/24 11:03:44;;;;;;;7.10;3.28;;;;;;;;;;5103913;28;20059;-62
2023/07/24 11:06:16;;;;;;;6.32;3.47;;;;;;;;;;5104932;28;20079;-60
2023/07/24 11:08:52;;;;;;;7.45;3.42;;;;;;;;;;5108296;28;20036;-62
2023/07/24 11:11:21;;;;;;;6.32;2.80;;;;;;;;;;5107037;28;20071;-62
2023/07/24 11:13:49;;;;;;;5.88;2.85;;;;;;;;;;5107136;28;20526;-62
2023/07/24 11:16:17;;;;;;;6.35;3.67;;;;;;;;;;5106567;28;20067;-62
2023/07/24 11:18:48;;;;;;;6.43;3.10;;;;;;;;;;5106405;28;20488;-62
2023/07/24 11:21:22;;;;;;;7.15;3.47;;;;;;;;;;5106953;28;20070;-60
2023/07/24 11:23:52;;;;;;;7.28;3.05;;;;;;;;;;5099768;28;20043;-67
2023/07/24 11:26:21;;;;;;;5.50;2.85;;;;;;;;;;5104770;28;20046;-61
2023/07/24 11:28:50;;;;;;;6.85;3.17;;;;;;;;;;5106274;28;20050;-61
2023/07/24 11:31:20;;;;;;;7.40;3.10;;;;;;;;;;5109245;28;20043;-61
2023/07/24 11:33:50;;;;;;;6.70;3.05;;;;;;;;;;5106882;28;20130;-66
2023/07/24 11:36:19;;;;;;;6.00;3.03;;;;;;;;;;5105220;28;20067;-62
2023/07/24 11:38:47;;;;;;;6.40;3.38;;;;;;;;;;5103902;28;20052;-61
2023/07/24 11:41:16;;;;;;;7.13;2.60;;;;;;;;;;5107523;28;20055;-61
2023/07/24 11:43:48;;;;;;;5.25;2.50;;;;;;;;;;5104111;28;20047;-62
2023/07/24 11:46:26;;;;;;;6.15;2.83;;;;;;;;;;5099593;28;20289;-61
2023/07/24 11:48:57;;;;;;;8.07;3.05;;;;;;;;;;5103807;28;20071;-61
2023/07/24 11:51:27;;;;;;;7.82;3.90;;;;;;;;;;5106697;28;20492;-61
2023/07/24 11:54:06;;;;;;;5.60;2.92;;;;;;;;;;5101398;28;20058;-62
2023/07/24 11:56:34;;;;;;;4.90;2.70;;;;;;;;;;5107108;28;20093;-60
2023/07/24 11:59:10;;;;;;;5.43;3.20;;;;;;;;;;5106539;28;20480;-61
2023/07/24 12:01:39;;;;;;;6.30;3.10;;;;;;;;;;5107301;28;20545;-61
2023/07/24 12:04:08;;;;;;;5.03;2.70;;;;;;;;;;5099874;28;20055;-61
2023/07/24 12:06:39;;;;;;;7.47;3.05;;;;;;;;;;5100111;28;20048;-60
2023/07/24 12:09:08;;;;;;;5.20;2.80;;;;;;;;;;5098034;28;20550;-60
2023/07/24 12:11:40;;;;;;;4.90;2.78;;;;;;;;;;5097463;28;20641;-60
2023/07/24 12:14:13;;;;;;;7.18;2.95;;;;;;;;;;5096926;28;20059;-62
2023/07/24 12:16:41;;;;;;;5.47;2.92;;;;;;;;;;5099270;28;20124;-65
2023/07/24 12:19:11;;;;;;;8.40;3.17;;;;;;;;;;5097680;28;20059;-62
2023/07/24 12:21:39;;;;;;;8.13;2.80;;;;;;;;;;5100394;28;20053;-61
2023/07/24 12:24:08;;;;;;;6.55;3.35;;;;;;;;;;5095660;28;20628;-61
2023/07/24 12:26:36;;;;;;;8.18;3.25;;;;;;;;;;5102582;28;20096;-61
2023/07/24 12:29:04;;;;;;;5.75;3.00;;;;;;;;;;5099618;28;20040;-64
2023/07/24 12:31:33;;;;;;;6.72;3.60;;;;;;;;;;5093822;28;20142;-64
2023/07/24 12:34:02;;;;;;;9.60;3.60;;;;;;;;;;5099146;28;20507;-61
2023/07/24 12:36:32;;;;;;;6.97;3.47;;;;;;;;;;5101449;28;20048;-63
2023/07/24 12:39:00;;;;;;;7.65;2.75;;;;;;;;;;5104385;28;20116;-62
2023/07/24 12:41:29;;;;;;;7.63;3.38;;;;;;;;;;5102647;28;20056;-61
2023/07/24 12:43:58;;;;;;;7.97;3.45;;;;;;;;;;5098291;28;20048;-61
2023/07/24 12:46:28;;;;;;;5.22;2.97;;;;;;;;;;5099813;28;20039;-60
2023/07/24 12:48:56;;;;;;;7.55;3.30;;;;;;;;;;5096025;28;20047;-61
2023/07/24 12:51:25;;;;;;;7.53;3.53;;;;;;;;;;5097614;28;20059;-64
2023/07/24 12:53:55;;;;;;;7.55;3.97;;;;;;;;;;5097985;28;20511;-61
2023/07/24 12:56:43;;;;;;;7.68;2.95;;;;;;;;;;5096468;28;20493;-66
2023/07/24 12:59:11;;;;;;;8.73;3.50;;;;;;;;;;5092647;28;20062;-61
2023/07/24 13:01:40;;;;;;;7.30;3.60;;;;;;;;;;5100511;28;20449;-60
2023/07/24 13:04:09;;;;;;;9.40;3.30;;;;;;;;;;5092404;28;20503;-63
2023/07/24 13:06:37;;;;;;;6.38;3.38;;;;;;;;;;5076346;28;20104;-66
2023/07/24 13:09:07;;;;;;;6.60;2.83;;;;;;;;;;5069406;28;20048;-60
2023/07/24 13:11:35;;;;;;;8.35;3.15;;;;;;;;;;5076339;28;20421;-65
2023/07/24 13:14:04;;;;;;;8.13;2.70;;;;;;;;;;5063638;28;20459;-61
2023/07/24 13:16:32;;;;;;;5.63;2.80;;;;;;;;;;5073203;28;20044;-61
2023/07/24 13:19:01;;;;;;;5.70;2.78;;;;;;;;;;5081604;28;20046;-61
2023/07/24 13:21:30;;;;;;;8.77;3.08;;;;;;;;;;5085700;28;20413;-65
2023/07/24 13:23:59;;;;;;;5.38;2.40;;;;;;;;;;5061501;28;20173;-61
2023/07/24 13:26:28;;;;;;;5.65;2.58;;;;;;;;;;5085542;28;20071;-61
2023/07/24 13:28:57;;;;;;;6.70;2.95;;;;;;;;;;5078933;28;20048;-60
2023/07/24 13:31:28;;;;;;;4.93;2.13;;;;;;;;;;5083186;28;20121;-63
2023/07/24 13:33:57;;;;;;;6.18;2.80;;;;;;;;;;5084790;28;20121;-60
2023/07/24 13:36:25;;;;;;;8.73;3.10;;;;;;;;;;5084916;28;20040;-64
2023/07/24 13:38:53;;;;;;;7.45;3.05;;;;;;;;;;5087034;28;20071;-61
2023/07/24 13:41:22;;;;;;;7.07;3.15;;;;;;;;;;5086162;28;20040;-61
2023/07/24 13:43:52;;;;;;;6.85;2.80;;;;;;;;;;5083186;28;20807;-61
2023/07/24 13:46:20;;;;;;;8.15;2.90;;;;;;;;;;5084863;28;20048;-61
2023/07/24 13:48:49;;;;;;;5.03;2.75;;;;;;;;;;5086692;28;20481;-61
2023/07/24 13:51:17;;;;;;;8.07;2.90;;;;;;;;;;5079464;28;20055;-63
2023/07/24 13:53:48;;;;;;;6.93;3.08;;;;;;;;;;5081827;28;20044;-61
2023/07/24 13:56:18;;;;;;;6.82;2.70;;;;;;;;;;5083038;28;20856;-63
2023/07/24 13:58:46;;;;;;;4.95;2.58;;;;;;;;;;5084187;28;20388;-63
2023/07/24 14:01:16;;;;;;;5.43;2.60;;;;;;;;;;5082539;28;20492;-61
2023/07/24 14:03:44;;;;;;;5.15;2.97;;;;;;;;;;5098906;28;20059;-62
2023/07/24 14:06:13;;;;;;;6.00;2.78;;;;;;;;;;5096722;28;20028;-61
2023/07/24 14:08:42;;;;;;;5.18;2.47;;;;;;;;;;5105539;28;20091;-61
2023/07/24 14:11:10;;;;;;;6.38;3.08;;;;;;;;;;5105522;28;20058;-61
2023/07/24 14:13:39;;;;;;;5.78;3.05;;;;;;;;;;5105453;28;20104;-62
2023/07/24 14:16:07;;;;;;;8.30;3.00;;;;;;;;;;5102400;28;20071;-62
2023/07/24 14:18:37;;;;;;;5.68;2.70;;;;;;;;;;5103850;28;20051;-63
2023/07/24 14:21:06;;;;;;;7.30;2.67;;;;;;;;;;5103730;28;20047;-63
2023/07/24 14:23:34;;;;;;;6.13;2.92;;;;;;;;;;5101891;28;20484;-62
2023/07/24 14:26:03;;;;;;;6.75;2.60;;;;;;;;;;5101809;28;20729;-67
2023/07/24 14:28:32;;;;;;;5.00;2.75;;;;;;;;;;5105604;28;20048;-64
2023/07/24 14:31:00;;;;;;;4.53;2.72;;;;;;;;;;5108758;28;20052;-67
2023/07/24 14:33:29;;;;;;;5.40;2.65;;;;;;;;;;5109843;28;20420;-62
2023/07/24 14:35:58;;;;;;;4.72;2.45;;;;;;;;;;5110827;28;20495;-65
2023/07/24 14:38:27;;;;;;;5.10;2.53;;;;;;;;;;5110864;28;20043;-62
2023/07/24 14:40:55;;;;;;;4.72;2.38;;;;;;;;;;5109596;28;20043;-63
2023/07/24 14:43:24;;;;;;;5.43;2.10;;;;;;;;;;5108778;28;20048;-64
2023/07/24 14:45:52;;;;;;;4.10;2.35;;;;;;;;;;5101602;28;20978;-63
2023/07/24 14:48:20;;;;;;;6.65;2.88;;;;;;;;;;5104007;28;20126;-62